Погода Санта Виторияна неделю

Минас-Жерайс, Бразилия

23 - 29 июля
  • 23июля
    Сегодня
    +17°
    +31°
    Ясно и безоблачно
    ВремяПогодаТемператураВлажностьДавлениеВетер, м/сВероятность осадков
    00:00Ясно и безоблачно+20°C43 %715 мм2.8 м/с5 %
    03:00Ясно и безоблачно+19°C44 %714 мм2.8 м/с5 %
    06:00Ясно и безоблачно+18°C50 %714 мм2.8 м/с5 %
    09:00Ясно и безоблачно+22°C38 %717 мм2.3 м/с5 %
    12:00Ясно и безоблачно+28°C26 %717 мм3.4 м/с5 %
    15:00Ясно и безоблачно+30°C23 %715 мм2.8 м/с5 %
    18:00Ясно и безоблачно+27°C28 %714 мм2.4 м/с5 %
    21:00Ясно и безоблачно+24°C42 %715 мм2.6 м/с5 %
  • 24июля
    Среда
    +17°
    +32°
    Ясно и безоблачно
    ВремяПогодаТемператураВлажностьДавлениеВетер, м/сВероятность осадков
    00:00Ясно и безоблачно+21°C44 %715 мм2.5 м/с5 %
    03:00Практически безоблачно+19°C46 %714 мм2.5 м/с5 %
    06:00Небольшая облачность+18°C52 %714 мм2.7 м/с5 %
    09:00Практически безоблачно+21°C44 %716 мм2.9 м/с5 %
    12:00Ясно и безоблачно+28°C27 %717 мм4.2 м/с5 %
    15:00Ясно и безоблачно+31°C23 %715 мм1.8 м/с5 %
    18:00Ясно и безоблачно+29°C30 %714 мм1.0 м/с5 %
    21:00Ясно и безоблачно+24°C40 %715 мм2.2 м/с5 %
  • 25июля
    Четверг
    +18°
    +32°
    Ясно и безоблачно
    ВремяПогодаТемператураВлажностьДавлениеВетер, м/сВероятность осадков
    00:00Ясно и безоблачно+22°C43 %715 мм2.3 м/с5 %
    03:00Ясно и безоблачно+20°C51 %714 мм2.2 м/с5 %
    06:00Ясно и безоблачно+18°C61 %714 мм2.3 м/с5 %
    09:00Ясно и безоблачно+22°C41 %716 мм2.7 м/с5 %
    12:00Ясно и безоблачно+28°C25 %716 мм3.2 м/с5 %
    15:00Ясно и безоблачно+31°C20 %713 мм1.5 м/с5 %
    18:00Ясно и безоблачно+30°C24 %713 мм1.0 м/с5 %
    21:00Ясно и безоблачно+28°C25 %714 мм0.9 м/с5 %
  • 26июля
    Пятница
    +18°
    +31°
    Ясно и безоблачно
    ВремяПогодаТемператураВлажностьДавлениеВетер, м/сВероятность осадков
    00:00Облачно с прояснениями+22°C38 %713 мм2.6 м/с5 %
    03:00Облачно с прояснениями+20°C43 %712 мм2.9 м/с5 %
    06:00Небольшая облачность+19°C49 %712 мм2.7 м/с5 %
    09:00Небольшая облачность+22°C46 %715 мм3.0 м/с5 %
    12:00Облачно с прояснениями+29°C26 %715 мм3.4 м/с5 %
    15:00Ясно и безоблачно+31°C20 %713 мм2.0 м/с5 %
    18:00Облачно с прояснениями+28°C25 %713 мм1.7 м/с5 %
    21:00Облачно с прояснениями+24°C33 %713 мм1.8 м/с5 %
  • 27июля
    Суббота
    +19°
    +32°
    Ясно и безоблачно
    ВремяПогодаТемператураВлажностьДавлениеВетер, м/сВероятность осадков
    00:00Небольшая облачность+22°C38 %713 мм2.4 м/с5 %
    03:00Ясно и безоблачно+20°C43 %712 мм3.0 м/с5 %
    06:00Ясно и безоблачно+19°C45 %712 мм2.5 м/с5 %
    09:00Ясно и безоблачно+22°C39 %715 мм3.2 м/с5 %
    12:00Ясно и безоблачно+29°C24 %715 мм3.2 м/с5 %
    15:00Ясно и безоблачно+32°C17 %713 мм1.7 м/с5 %
    18:00Ясно и безоблачно+31°C19 %714 мм1.0 м/с5 %
    21:00Ясно и безоблачно+24°C32 %714 мм2.5 м/с5 %
Мы используем cookies
Соглашаюсь